createdAt,value
2023-02-01T00:01:17.555Z,90.70
2023-02-01T00:03:45.574Z,90.70
2023-02-01T00:06:13.709Z,90.70
2023-02-01T00:08:41.916Z,90.70
2023-02-01T00:11:13.005Z,90.50
2023-02-01T00:13:43.032Z,90.00
2023-02-01T00:16:13.281Z,90.30
2023-02-01T00:18:41.505Z,90.50
2023-02-01T00:21:09.607Z,90.50
2023-02-01T00:23:39.698Z,90.50
2023-02-01T00:26:09.224Z,90.30
2023-02-01T00:28:39.368Z,90.60
2023-02-01T00:31:07.477Z,91.10
2023-02-01T00:33:36.041Z,91.50
2023-02-01T00:36:06.553Z,91.60
2023-02-01T00:38:35.589Z,91.50
2023-02-01T00:41:08.205Z,91.50
2023-02-01T00:43:38.023Z,91.70
2023-02-01T00:46:06.210Z,91.20
2023-02-01T00:48:34.355Z,91.70
2023-02-01T00:51:02.818Z,92.00
2023-02-01T00:53:31.245Z,91.80
2023-02-01T00:55:59.930Z,91.70
2023-02-01T00:58:28.410Z,91.60
2023-02-01T01:01:05.612Z,91.50
2023-02-01T01:03:35.313Z,91.60
2023-02-01T01:06:06.457Z,91.70
2023-02-01T01:08:34.846Z,91.30
2023-02-01T01:11:08.287Z,91.20
2023-02-01T01:13:36.893Z,91.40
2023-02-01T01:16:08.337Z,91.10
2023-02-01T01:18:37.283Z,91.40
2023-02-01T01:21:07.805Z,91.30
2023-02-01T01:23:36.387Z,91.50
2023-02-01T01:26:08.105Z,91.10
2023-02-01T01:28:36.475Z,91.70
2023-02-01T01:31:06.482Z,91.70
2023-02-01T01:33:34.641Z,91.60
2023-02-01T01:36:02.622Z,91.50
2023-02-01T01:38:30.668Z,91.50
2023-02-01T01:40:58.702Z,91.80
2023-02-01T01:43:26.749Z,91.80
2023-02-01T01:45:54.713Z,91.90
2023-02-01T01:48:29.613Z,92.00
2023-02-01T01:51:02.754Z,92.10
2023-02-01T01:53:41.084Z,92.10
2023-02-01T01:56:09.354Z,92.30
2023-02-01T01:58:37.501Z,93.10
2023-02-01T02:01:05.709Z,93.60
2023-02-01T02:03:39.750Z,93.70
2023-02-01T02:06:16.273Z,93.60
2023-02-01T02:08:44.418Z,93.60
2023-02-01T02:11:15.558Z,93.60
2023-02-01T02:13:46.553Z,93.60
2023-02-01T02:16:37.621Z,93.50
2023-02-01T02:19:44.265Z,93.40
2023-02-01T02:22:43.111Z,93.20
2023-02-01T02:25:58.843Z,93.10
2023-02-01T02:28:52.147Z,93.10
2023-02-01T02:31:53.432Z,93.00
2023-02-01T02:34:28.160Z,92.80
2023-02-01T02:37:06.336Z,92.80
2023-02-01T02:39:44.883Z,92.70
2023-02-01T02:42:37.261Z,92.70
2023-02-01T02:45:27.700Z,92.60
2023-02-01T02:47:59.418Z,92.50
2023-02-01T02:50:52.033Z,93.00
2023-02-01T02:53:43.056Z,93.50
2023-02-01T02:56:31.914Z,93.00
2023-02-01T02:59:18.588Z,93.20
2023-02-01T03:02:04.526Z,93.30
2023-02-01T03:04:32.488Z,93.20
2023-02-01T03:07:15.430Z,92.90
2023-02-01T03:09:46.836Z,93.20
2023-02-01T03:12:34.034Z,93.50
2023-02-01T03:15:08.240Z,93.40
2023-02-01T03:17:43.821Z,93.30
2023-02-01T03:20:15.264Z,93.20
2023-02-01T03:22:46.197Z,93.20
2023-02-01T03:25:17.409Z,93.20
2023-02-01T03:27:51.017Z,93.00
2023-02-01T03:30:23.222Z,92.90
2023-02-01T03:33:00.654Z,93.20
2023-02-01T03:35:33.809Z,93.40
2023-02-01T03:38:11.174Z,93.40
2023-02-01T03:40:41.608Z,93.90
2023-02-01T03:43:14.774Z,94.20
2023-02-01T03:45:45.646Z,93.80
2023-02-01T03:48:16.826Z,93.60
2023-02-01T03:50:50.590Z,93.80
2023-02-01T03:53:24.158Z,93.90
2023-02-01T03:55:53.440Z,93.90
2023-02-01T03:58:23.211Z,94.00
2023-02-01T04:00:54.055Z,94.10
2023-02-01T04:03:22.665Z,94.50
2023-02-01T04:05:50.729Z,94.40
2023-02-01T04:08:20.566Z,94.00
2023-02-01T04:10:48.754Z,93.90
2023-02-01T04:13:16.783Z,94.20
2023-02-01T04:15:44.761Z,94.40
2023-02-01T04:18:12.796Z,94.80
2023-02-01T04:20:40.774Z,94.90
2023-02-01T04:23:08.782Z,95.00
2023-02-01T04:25:38.096Z,95.20
2023-02-01T04:28:07.871Z,95.20
2023-02-01T04:30:36.167Z,95.20
2023-02-01T04:33:07.260Z,95.20
2023-02-01T04:35:35.293Z,95.20
2023-02-01T04:38:03.363Z,95.30
2023-02-01T04:40:31.367Z,95.30
2023-02-01T04:43:02.247Z,95.30
2023-02-01T04:45:30.246Z,95.30
2023-02-01T04:47:58.176Z,95.30
2023-02-01T04:50:26.298Z,95.40
2023-02-01T04:52:54.297Z,95.30
2023-02-01T04:55:22.276Z,95.10
2023-02-01T04:57:50.292Z,95.00
2023-02-01T05:00:20.983Z,95.10
2023-02-01T05:02:49.151Z,95.00
2023-02-01T05:05:17.347Z,94.80
2023-02-01T05:07:45.426Z,94.80
2023-02-01T05:10:13.390Z,94.80
2023-02-01T05:12:58.793Z,95.10
2023-02-01T05:15:28.212Z,95.10
2023-02-01T05:17:56.382Z,94.90
2023-02-01T05:20:24.646Z,95.30
2023-02-01T05:22:52.802Z,96.00
2023-02-01T05:25:21.018Z,96.10
2023-02-01T05:27:48.994Z,95.80
2023-02-01T05:30:17.553Z,95.70
2023-02-01T05:32:46.865Z,95.60
2023-02-01T05:35:14.842Z,95.70
2023-02-01T05:37:42.855Z,95.90
2023-02-01T05:40:12.179Z,95.90
2023-02-01T05:42:40.199Z,96.10
2023-02-01T05:45:09.639Z,96.10
2023-02-01T05:47:37.827Z,95.80
2023-02-01T05:50:08.895Z,95.90
2023-02-01T05:52:36.886Z,96.10
2023-02-01T05:55:05.296Z,96.10
2023-02-01T05:57:33.364Z,96.10
2023-02-01T06:00:01.663Z,95.90
2023-02-01T06:02:29.697Z,95.90
2023-02-01T06:04:57.757Z,95.80
2023-02-01T06:07:29.378Z,96.00
2023-02-01T06:09:57.698Z,95.70
2023-02-01T06:12:25.673Z,95.50
2023-02-01T06:14:53.624Z,95.70
2023-02-01T06:17:21.801Z,95.70
2023-02-01T06:19:49.920Z,95.90
2023-02-01T06:22:17.883Z,95.90
2023-02-01T06:24:47.223Z,95.90
2023-02-01T06:27:15.581Z,96.20
2023-02-01T06:29:43.822Z,96.30
2023-02-01T06:32:12.242Z,96.10
2023-02-01T06:34:40.613Z,96.10
2023-02-01T06:37:08.589Z,96.30
2023-02-01T06:39:36.916Z,96.50
2023-02-01T06:42:06.370Z,96.50
2023-02-01T06:44:34.309Z,96.30
2023-02-01T06:47:02.595Z,96.20
2023-02-01T06:49:30.595Z,96.10
2023-02-01T06:52:01.104Z,95.90
2023-02-01T06:54:29.188Z,95.90
2023-02-01T06:56:57.319Z,95.80
2023-02-01T06:59:26.685Z,95.60
2023-02-01T07:01:54.721Z,95.60
2023-02-01T07:04:22.771Z,95.90
2023-02-01T07:06:50.807Z,95.90
2023-02-01T07:09:18.810Z,95.90
2023-02-01T07:11:46.785Z,96.00
2023-02-01T07:14:15.434Z,96.00
2023-02-01T07:16:44.891Z,95.90
2023-02-01T07:19:12.943Z,95.70
2023-02-01T07:21:40.881Z,95.60
2023-02-01T07:24:09.095Z,95.50
2023-02-01T07:26:37.183Z,95.70
2023-02-01T07:29:05.219Z,96.00
2023-02-01T07:31:33.289Z,96.00
2023-02-01T07:34:03.604Z,96.30
2023-02-01T07:36:31.628Z,96.60
2023-02-01T07:39:00.642Z,96.40
2023-02-01T07:41:28.694Z,96.30
2023-02-01T07:43:57.800Z,95.90
2023-02-01T07:46:26.014Z,96.10
2023-02-01T07:48:53.946Z,95.90
2023-02-01T07:51:23.348Z,95.80
2023-02-01T07:53:51.331Z,95.60
2023-02-01T07:56:21.003Z,95.70
2023-02-01T07:58:50.332Z,95.70
2023-02-01T08:01:21.148Z,95.50
2023-02-01T08:03:49.900Z,95.50
2023-02-01T08:06:18.501Z,95.30
2023-02-01T08:08:48.259Z,95.30
2023-02-01T08:11:16.655Z,95.20
2023-02-01T08:13:45.496Z,95.20
2023-02-01T08:16:15.048Z,95.00
2023-02-01T08:18:43.263Z,94.90
2023-02-01T08:21:13.888Z,94.90
2023-02-01T08:23:43.319Z,94.80
2023-02-01T08:26:15.723Z,94.80
2023-02-01T08:28:46.106Z,94.80
2023-02-01T08:31:16.292Z,95.00
2023-02-01T08:33:45.449Z,95.30
2023-02-01T08:36:13.706Z,95.50
2023-02-01T08:38:42.271Z,95.50
2023-02-01T08:41:13.294Z,95.40
2023-02-01T08:43:42.047Z,95.30
2023-02-01T08:46:10.874Z,95.40
2023-02-01T08:48:39.419Z,95.40
2023-02-01T08:51:09.758Z,95.30
2023-02-01T08:53:38.267Z,95.10
2023-02-01T08:56:08.002Z,95.10
2023-02-01T08:58:37.405Z,94.90
2023-02-01T09:01:06.599Z,94.90
2023-02-01T09:03:34.788Z,94.80
2023-02-01T09:06:03.305Z,94.70
2023-02-01T09:08:31.388Z,94.90
2023-02-01T09:11:03.544Z,94.70
2023-02-01T09:13:32.067Z,94.40
2023-02-01T09:16:01.799Z,94.50
2023-02-01T09:18:29.900Z,94.20
2023-02-01T09:20:57.904Z,94.10
2023-02-01T09:23:26.204Z,94.30
2023-02-01T09:25:54.372Z,94.20
2023-02-01T09:28:22.365Z,93.60
2023-02-01T09:30:50.497Z,93.70
2023-02-01T09:33:21.395Z,93.70
2023-02-01T09:35:49.386Z,93.80
2023-02-01T09:38:17.567Z,93.80
2023-02-01T09:40:49.135Z,93.80
2023-02-01T09:43:32.769Z,93.40
2023-02-01T09:46:16.264Z,93.30
2023-02-01T09:48:47.304Z,93.30
2023-02-01T09:51:20.005Z,92.30
2023-02-01T09:54:01.805Z,91.60
2023-02-01T09:56:38.333Z,91.80
2023-02-01T09:59:12.894Z,91.90
2023-02-01T10:01:40.992Z,91.40
2023-02-01T10:04:14.357Z,90.80
2023-02-01T10:06:55.314Z,90.20
2023-02-01T10:09:38.820Z,90.40
2023-02-01T10:12:43.520Z,90.00
2023-02-01T10:15:32.674Z,90.00
2023-02-01T10:18:20.263Z,90.00
2023-02-01T10:20:59.271Z,88.60
2023-02-01T10:23:44.938Z,88.90
2023-02-01T10:26:20.747Z,89.30
2023-02-01T10:28:52.280Z,89.40
2023-02-01T10:31:23.403Z,88.50
2023-02-01T10:33:54.521Z,86.60
2023-02-01T10:36:31.339Z,86.60
2023-02-01T10:39:01.136Z,86.60
2023-02-01T10:41:34.809Z,87.10
2023-02-01T10:44:05.516Z,87.10
2023-02-01T10:46:34.089Z,86.60
2023-02-01T10:49:07.586Z,86.10
2023-02-01T10:51:45.182Z,85.70
2023-02-01T10:54:18.884Z,84.90
2023-02-01T10:56:47.535Z,84.30
2023-02-01T10:59:19.291Z,83.80
2023-02-01T11:01:49.229Z,84.00
2023-02-01T11:04:19.830Z,84.50
2023-02-01T11:06:52.979Z,83.80
2023-02-01T11:09:23.239Z,83.80
2023-02-01T11:11:59.884Z,83.50
2023-02-01T11:14:39.894Z,83.60
2023-02-01T11:17:29.308Z,83.60
2023-02-01T11:20:02.097Z,84.60
2023-02-01T11:22:32.000Z,85.70
2023-02-01T11:25:15.303Z,85.30
2023-02-01T11:27:54.441Z,84.50
2023-02-01T11:30:34.056Z,83.70
2023-02-01T11:33:05.427Z,84.80
2023-02-01T11:35:38.230Z,84.10
2023-02-01T11:38:16.010Z,83.40
2023-02-01T11:40:44.046Z,83.50
2023-02-01T11:43:17.436Z,83.10
2023-02-01T11:45:56.475Z,83.60
2023-02-01T11:48:27.588Z,82.10
2023-02-01T11:51:07.043Z,80.00
2023-02-01T11:53:48.406Z,80.00
2023-02-01T11:56:24.790Z,80.10
2023-02-01T11:59:05.826Z,80.10
2023-02-01T12:01:50.135Z,79.50
2023-02-01T12:04:52.743Z,80.00
2023-02-01T12:07:24.732Z,79.50
2023-02-01T12:10:07.461Z,78.70
2023-02-01T12:12:46.095Z,77.10
2023-02-01T12:15:35.290Z,75.60
2023-02-01T12:18:30.355Z,74.50
2023-02-01T12:21:17.544Z,73.80
2023-02-01T12:23:59.415Z,73.30
2023-02-01T12:26:47.842Z,72.50
2023-02-01T12:29:37.921Z,72.80
2023-02-01T12:32:21.936Z,73.80
2023-02-01T12:35:03.861Z,74.00
2023-02-01T12:37:56.820Z,71.90
2023-02-01T12:40:38.871Z,70.90
2023-02-01T12:43:16.377Z,69.90
2023-02-01T12:45:48.598Z,74.00
2023-02-01T12:48:28.393Z,74.30
2023-02-01T12:51:00.276Z,72.80
2023-02-01T12:53:38.370Z,72.30
2023-02-01T12:56:12.426Z,72.40
2023-02-01T12:58:46.692Z,71.80
2023-02-01T13:01:18.928Z,74.80
2023-02-01T13:03:56.060Z,75.50
2023-02-01T13:06:28.731Z,74.20
2023-02-01T13:09:06.816Z,73.30
2023-02-01T13:11:39.315Z,73.30
2023-02-01T13:14:18.162Z,72.80
2023-02-01T13:16:48.815Z,75.50
2023-02-01T13:19:26.695Z,75.00
2023-02-01T13:22:00.737Z,73.00
2023-02-01T13:24:34.888Z,72.20
2023-02-01T13:27:03.709Z,71.50
2023-02-01T13:29:35.475Z,74.00
2023-02-01T13:33:50.812Z,75.80
2023-02-01T13:35:55.119Z,76.80
2023-02-01T13:39:04.955Z,74.70
2023-02-01T13:41:37.302Z,73.00
2023-02-01T13:44:12.189Z,71.80
2023-02-01T13:46:44.806Z,72.90
2023-02-01T13:49:22.618Z,74.40
2023-02-01T13:51:53.587Z,74.70
2023-02-01T13:54:31.681Z,74.00
2023-02-01T13:57:01.471Z,72.80
2023-02-01T13:59:52.812Z,72.80
2023-02-01T14:03:13.021Z,73.20
2023-02-01T14:06:03.865Z,71.60
2023-02-01T14:08:48.238Z,71.70
2023-02-01T14:11:37.734Z,72.60
2023-02-01T14:14:45.859Z,73.40
2023-02-01T14:17:40.165Z,73.90
2023-02-01T14:20:46.914Z,72.90
2023-02-01T14:23:23.278Z,70.90
2023-02-01T14:26:16.979Z,71.30
2023-02-01T14:29:07.006Z,71.30
2023-02-01T14:31:44.257Z,71.60
2023-02-01T14:34:18.606Z,70.60
2023-02-01T14:36:51.019Z,70.10
2023-02-01T14:40:32.145Z,68.30
2023-02-01T14:43:01.496Z,68.00
2023-02-01T14:45:52.793Z,68.30
2023-02-01T14:48:45.588Z,68.40
2023-02-01T14:51:17.631Z,68.20
2023-02-01T14:53:47.667Z,68.00
2023-02-01T14:56:21.355Z,67.50
2023-02-01T14:58:58.218Z,70.90
2023-02-01T15:01:30.685Z,70.40
2023-02-01T15:04:06.581Z,68.80
2023-02-01T15:06:40.550Z,71.10
2023-02-01T15:09:13.007Z,71.50
2023-02-01T15:11:56.761Z,70.40
2023-02-01T15:14:26.436Z,69.80
2023-02-01T15:16:55.641Z,69.00
2023-02-01T15:19:25.532Z,69.20
2023-02-01T15:21:56.055Z,68.60
2023-02-01T15:24:26.608Z,67.10
2023-02-01T15:26:56.407Z,68.30
2023-02-01T15:29:28.799Z,69.10
2023-02-01T15:31:56.914Z,69.10
2023-02-01T15:34:24.947Z,69.90
2023-02-01T15:37:08.120Z,73.70
2023-02-01T15:39:38.329Z,75.60
2023-02-01T15:42:16.534Z,78.20
2023-02-01T15:44:47.894Z,78.20
2023-02-01T15:47:19.132Z,78.10
2023-02-01T15:49:52.540Z,78.10
2023-02-01T15:52:28.909Z,79.10
2023-02-01T15:55:00.259Z,78.20
2023-02-01T15:57:35.043Z,74.90
2023-02-01T16:00:08.763Z,76.80
2023-02-01T16:02:40.023Z,79.00
2023-02-01T16:05:34.878Z,78.00
2023-02-01T16:08:05.910Z,76.60
2023-02-01T16:10:40.258Z,81.50
2023-02-01T16:13:08.238Z,80.10
2023-02-01T16:15:38.061Z,78.30
2023-02-01T16:18:06.356Z,80.60
2023-02-01T16:20:36.238Z,82.30
2023-02-01T16:23:04.423Z,82.30
2023-02-01T16:25:32.760Z,81.30
2023-02-01T16:28:00.874Z,81.30
2023-02-01T16:30:29.129Z,78.30
2023-02-01T16:33:00.102Z,79.30
2023-02-01T16:35:32.393Z,80.90
2023-02-01T16:38:00.894Z,82.00
2023-02-01T16:40:28.961Z,82.60
2023-02-01T16:42:57.592Z,83.50
2023-02-01T16:45:25.948Z,83.90
2023-02-01T16:47:57.190Z,84.50
2023-02-01T16:50:28.650Z,82.80
2023-02-01T16:52:56.649Z,80.00
2023-02-01T16:55:25.194Z,81.70
2023-02-01T16:57:53.543Z,85.20
2023-02-01T17:00:24.936Z,83.80
2023-02-01T17:02:54.101Z,82.30
2023-02-01T17:05:23.094Z,81.80
2023-02-01T17:07:53.552Z,84.20
2023-02-01T17:10:40.979Z,84.90
2023-02-01T17:13:14.588Z,82.80
2023-02-01T17:15:50.502Z,80.10
2023-02-01T17:18:20.361Z,82.30
2023-02-01T17:20:48.687Z,85.00
2023-02-01T17:23:19.056Z,85.80
2023-02-01T17:25:48.450Z,84.00
2023-02-01T17:28:16.489Z,82.90
2023-02-01T17:30:44.792Z,83.30
2023-02-01T17:33:22.787Z,83.80
2023-02-01T17:35:50.963Z,82.60
2023-02-01T17:38:21.012Z,84.60
2023-02-01T17:40:49.104Z,85.60
2023-02-01T17:43:22.542Z,86.20
2023-02-01T17:45:53.427Z,85.60
2023-02-01T17:48:22.559Z,83.10
2023-02-01T17:50:54.712Z,84.10
2023-02-01T17:53:24.641Z,86.50
2023-02-01T17:55:53.457Z,85.80
2023-02-01T17:58:22.819Z,84.00
2023-02-01T18:00:52.145Z,84.70
2023-02-01T18:03:25.551Z,84.30
2023-02-01T18:05:55.155Z,83.50
2023-02-01T18:08:26.602Z,85.10
2023-02-01T18:10:56.438Z,86.30
2023-02-01T18:13:24.488Z,85.60
2023-02-01T18:15:52.482Z,84.50
2023-02-01T18:18:20.737Z,84.70
2023-02-01T18:20:50.417Z,85.20
2023-02-01T18:23:21.698Z,85.60
2023-02-01T18:25:52.520Z,85.20
2023-02-01T18:28:21.375Z,84.70
2023-02-01T18:30:51.773Z,86.70
2023-02-01T18:33:22.174Z,87.90
2023-02-01T18:36:24.039Z,87.70
2023-02-01T18:38:56.571Z,89.10
2023-02-01T18:41:27.148Z,86.30
2023-02-01T18:43:55.114Z,86.90
2023-02-01T18:46:23.407Z,89.10
2023-02-01T18:48:51.488Z,89.30
2023-02-01T18:51:21.145Z,88.50
2023-02-01T18:53:49.559Z,88.60
2023-02-01T18:56:18.620Z,87.40
2023-02-01T18:58:48.158Z,87.10
2023-02-01T19:01:18.731Z,85.30
2023-02-01T19:03:49.230Z,85.40
2023-02-01T19:06:19.931Z,86.60
2023-02-01T19:08:48.735Z,87.80
2023-02-01T19:11:16.770Z,88.20
2023-02-01T19:13:44.877Z,87.50
2023-02-01T19:16:14.991Z,85.50
2023-02-01T19:18:43.125Z,87.20
2023-02-01T19:21:13.997Z,88.60
2023-02-01T19:23:43.081Z,87.70
2023-02-01T19:26:12.503Z,87.30
2023-02-01T19:28:40.994Z,87.60
2023-02-01T19:31:10.049Z,90.40
2023-02-01T19:33:39.680Z,90.50
2023-02-01T19:36:09.963Z,90.30
2023-02-01T19:38:38.339Z,90.10
2023-02-01T19:41:06.641Z,89.40
2023-02-01T19:43:35.358Z,88.80
2023-02-01T19:46:03.756Z,90.00
2023-02-01T19:48:34.363Z,90.20
2023-02-01T19:51:04.525Z,90.00
2023-02-01T19:53:32.509Z,89.50
2023-02-01T19:56:01.734Z,89.20
2023-02-01T19:58:29.793Z,89.50
2023-02-01T20:00:59.625Z,89.70
2023-02-01T20:03:28.609Z,90.40
2023-02-01T20:05:59.477Z,90.50
2023-02-01T20:08:28.855Z,90.00
2023-02-01T20:10:57.677Z,90.40
2023-02-01T20:13:25.711Z,90.90
2023-02-01T20:15:57.925Z,91.00
2023-02-01T20:18:25.999Z,91.10
2023-02-01T20:20:56.750Z,91.00
2023-02-01T20:23:24.870Z,90.40
2023-02-01T20:25:55.123Z,90.40
2023-02-01T20:28:23.204Z,90.70
2023-02-01T20:30:51.242Z,91.50
2023-02-01T20:33:19.344Z,91.40
2023-02-01T20:35:47.444Z,90.90
2023-02-01T20:38:15.858Z,91.20
2023-02-01T20:40:43.977Z,92.40
2023-02-01T20:43:13.720Z,91.60
2023-02-01T20:45:42.260Z,91.30
2023-02-01T20:48:11.705Z,91.70
2023-02-01T20:50:40.335Z,90.60
2023-02-01T20:53:11.087Z,90.40
2023-02-01T20:55:40.737Z,91.40
2023-02-01T20:58:08.794Z,91.20
2023-02-01T21:00:38.189Z,91.20
2023-02-01T21:03:06.216Z,91.50
2023-02-01T21:05:40.937Z,90.90
2023-02-01T21:08:09.998Z,90.80
2023-02-01T21:10:38.399Z,90.60
2023-02-01T21:13:07.164Z,91.00
2023-02-01T21:15:36.216Z,91.60
2023-02-01T21:18:09.097Z,91.20
2023-02-01T21:20:37.074Z,91.00
2023-02-01T21:23:05.100Z,91.10
2023-02-01T21:25:33.076Z,90.80
2023-02-01T21:28:03.172Z,91.30
2023-02-01T21:30:31.147Z,91.40
2023-02-01T21:33:00.801Z,91.00
2023-02-01T21:35:30.855Z,91.10
2023-02-01T21:37:59.547Z,91.70
2023-02-01T21:40:27.621Z,91.40
2023-02-01T21:42:55.593Z,91.50
2023-02-01T21:45:23.818Z,91.90
2023-02-01T21:47:52.066Z,91.90
2023-02-01T21:50:21.542Z,91.80
2023-02-01T21:52:50.961Z,91.20
2023-02-01T21:55:18.998Z,91.20
2023-02-01T21:57:47.206Z,91.60
2023-02-01T22:00:16.200Z,92.00
2023-02-01T22:02:44.211Z,92.10
2023-02-01T22:05:12.171Z,92.00
2023-02-01T22:07:40.268Z,92.00
2023-02-01T22:10:14.012Z,91.90
2023-02-01T22:12:41.969Z,91.60
2023-02-01T22:15:10.700Z,91.40
2023-02-01T22:17:38.776Z,91.90
2023-02-01T22:20:07.567Z,91.90
2023-02-01T22:22:35.577Z,92.20
2023-02-01T22:25:04.520Z,92.70
2023-02-01T22:28:31.964Z,92.10
2023-02-01T22:30:22.607Z,92.20
2023-02-01T22:32:50.573Z,92.90
2023-02-01T22:35:18.598Z,92.80
2023-02-01T22:37:46.527Z,92.00
2023-02-01T22:40:14.982Z,92.80
2023-02-01T22:42:44.574Z,93.60
2023-02-01T22:45:13.196Z,93.40
2023-02-01T22:47:41.240Z,93.00
2023-02-01T22:50:10.389Z,92.50
2023-02-01T22:52:38.339Z,92.70
2023-02-01T22:55:07.146Z,92.40
2023-02-01T22:57:35.137Z,92.10
2023-02-01T23:00:05.286Z,92.60
2023-02-01T23:02:33.460Z,93.60
2023-02-01T23:05:01.442Z,93.40
2023-02-01T23:07:29.448Z,93.20
2023-02-01T23:09:57.480Z,93.00
2023-02-01T23:12:25.586Z,92.70
2023-02-01T23:15:08.723Z,92.70
2023-02-01T23:17:38.603Z,92.90
2023-02-01T23:20:08.794Z,92.90
2023-02-01T23:22:36.808Z,92.90
2023-02-01T23:25:05.254Z,92.80
2023-02-01T23:27:33.269Z,92.50
2023-02-01T23:30:01.322Z,92.90
2023-02-01T23:32:29.294Z,92.70
2023-02-01T23:34:58.634Z,92.90
2023-02-01T23:37:26.721Z,93.40
2023-02-01T23:39:54.900Z,93.80
2023-02-01T23:42:23.050Z,93.50
2023-02-01T23:44:51.032Z,93.60
2023-02-01T23:47:19.262Z,94.10
2023-02-01T23:49:47.303Z,93.80
2023-02-01T23:52:16.606Z,93.60
2023-02-01T23:54:44.565Z,93.50
2023-02-01T23:57:12.677Z,93.70
2023-02-01T23:59:40.697Z,93.90
